createdAt,value
2023-04-23T00:00:13.183Z,2.33
2023-04-23T00:02:42.411Z,1.70
2023-04-23T00:05:10.196Z,3.38
2023-04-23T00:07:43.098Z,1.90
2023-04-23T00:10:10.504Z,1.80
2023-04-23T00:12:37.368Z,2.30
2023-04-23T00:15:05.557Z,2.50
2023-04-23T00:17:32.253Z,3.22
2023-04-23T00:19:58.906Z,2.88
2023-04-23T00:22:25.629Z,2.33
2023-04-23T00:24:52.316Z,3.65
2023-04-23T00:27:20.974Z,2.97
2023-04-23T00:29:51.161Z,5.13
2023-04-23T00:32:18.053Z,2.65
2023-04-23T00:34:48.564Z,2.90
2023-04-23T00:37:16.182Z,5.93
2023-04-23T00:39:43.187Z,2.55
2023-04-23T00:42:13.719Z,2.65
2023-04-23T00:44:41.779Z,3.70
2023-04-23T00:47:09.604Z,5.63
2023-04-23T00:49:39.274Z,6.43
2023-04-23T00:52:06.089Z,4.03
2023-04-23T00:54:32.783Z,3.00
2023-04-23T00:56:59.653Z,5.90
2023-04-23T00:59:27.975Z,4.03
2023-04-23T01:01:56.280Z,4.10
2023-04-23T01:04:24.464Z,3.05
2023-04-23T01:06:53.285Z,10.82
2023-04-23T01:09:20.439Z,4.40
2023-04-23T01:11:48.753Z,3.30
2023-04-23T01:14:15.491Z,2.67
2023-04-23T01:16:42.529Z,4.85
2023-04-23T01:19:10.378Z,5.63
2023-04-23T01:21:40.678Z,5.80
2023-04-23T01:24:08.580Z,6.70
2023-04-23T01:26:35.571Z,2.38
2023-04-23T01:29:02.491Z,3.92
2023-04-23T01:31:30.685Z,3.75
2023-04-23T01:33:58.348Z,5.30
2023-04-23T01:36:25.502Z,1.30
2023-04-23T01:38:53.084Z,13.43
2023-04-23T01:41:22.477Z,12.20
2023-04-23T01:43:49.385Z,10.90
2023-04-23T01:46:16.854Z,12.45
2023-04-23T01:48:43.628Z,7.35
2023-04-23T01:51:10.202Z,5.85
2023-04-23T01:53:36.810Z,6.53
2023-04-23T01:56:04.975Z,5.68
2023-04-23T01:58:31.863Z,7.15
2023-04-23T02:01:13.815Z,4.60
2023-04-23T02:03:40.596Z,13.02
2023-04-23T02:06:07.566Z,3.13
2023-04-23T02:08:35.576Z,10.02
2023-04-23T02:11:02.222Z,4.57
2023-04-23T02:13:28.897Z,6.35
2023-04-23T02:15:55.526Z,6.05
2023-04-23T02:18:22.176Z,5.15
2023-04-23T02:20:49.368Z,3.75
2023-04-23T02:23:16.055Z,4.68
2023-04-23T02:25:43.279Z,6.80
2023-04-23T02:28:13.208Z,6.82
2023-04-23T02:30:45.811Z,8.73
2023-04-23T02:33:12.838Z,3.75
2023-04-23T02:35:39.445Z,3.70
2023-04-23T02:38:06.065Z,6.38
2023-04-23T02:40:32.644Z,7.57
2023-04-23T02:42:59.239Z,6.93
2023-04-23T02:45:25.926Z,8.85
2023-04-23T02:47:53.485Z,11.77
2023-04-23T02:50:20.387Z,1.90
2023-04-23T02:52:48.206Z,6.90
2023-04-23T02:55:14.928Z,8.25
2023-04-23T02:57:41.745Z,3.88
2023-04-23T03:00:09.551Z,9.10
2023-04-23T03:02:41.083Z,5.00
2023-04-23T03:05:08.550Z,5.30
2023-04-23T03:07:35.389Z,5.72
2023-04-23T03:10:02.327Z,6.78
2023-04-23T03:12:29.205Z,3.60
2023-04-23T03:14:55.818Z,6.10
2023-04-23T03:17:25.224Z,5.80
2023-04-23T03:19:52.012Z,10.10
2023-04-23T03:22:48.530Z,9.82
2023-04-23T03:25:16.390Z,5.07
2023-04-23T03:27:43.926Z,9.13
2023-04-23T03:30:11.263Z,9.82
2023-04-23T03:32:38.774Z,9.85
2023-04-23T03:35:06.039Z,3.97
2023-04-23T03:37:33.193Z,5.88
2023-04-23T03:40:01.251Z,2.80
2023-04-23T03:42:28.910Z,7.00
2023-04-23T03:44:55.486Z,10.70
2023-04-23T03:47:22.216Z,5.55
2023-04-23T03:49:49.048Z,4.97
2023-04-23T03:52:16.314Z,5.07
2023-04-23T03:54:43.294Z,6.55
2023-04-23T03:57:13.528Z,3.67
2023-04-23T03:59:55.704Z,4.22
2023-04-23T04:02:22.919Z,4.30
2023-04-23T04:04:54.962Z,3.50
2023-04-23T04:07:24.107Z,3.80
2023-04-23T04:09:50.709Z,4.43
2023-04-23T04:12:17.326Z,9.75
2023-04-23T04:14:44.222Z,5.35
2023-04-23T04:17:12.294Z,6.30
2023-04-23T04:19:39.061Z,12.35
2023-04-23T04:22:06.869Z,8.43
2023-04-23T04:24:33.530Z,4.15
2023-04-23T04:27:00.163Z,7.50
2023-04-23T04:29:27.312Z,3.92
2023-04-23T04:31:54.823Z,5.25
2023-04-23T04:34:21.605Z,12.90
2023-04-23T04:36:48.203Z,7.50
2023-04-23T04:39:14.828Z,4.03
2023-04-23T04:41:42.751Z,9.25
2023-04-23T04:44:09.484Z,18.27
2023-04-23T04:46:40.436Z,23.67
2023-04-23T04:49:08.761Z,11.13
2023-04-23T04:51:37.065Z,7.60
2023-04-23T04:54:03.836Z,6.90
2023-04-23T04:56:30.642Z,4.28
2023-04-23T04:58:57.281Z,14.00
2023-04-23T05:01:25.313Z,8.18
2023-04-23T05:03:52.611Z,11.20
2023-04-23T05:06:19.519Z,7.32
2023-04-23T05:08:48.194Z,2.90
2023-04-23T05:11:18.850Z,4.43
2023-04-23T05:13:46.034Z,10.35
2023-04-23T05:16:12.907Z,17.73
2023-04-23T05:18:40.748Z,9.15
2023-04-23T05:21:07.651Z,7.00
2023-04-23T05:23:35.306Z,10.35
2023-04-23T05:26:03.581Z,4.50
2023-04-23T05:28:31.029Z,4.18
2023-04-23T05:30:58.373Z,3.92
2023-04-23T05:33:30.622Z,8.98
2023-04-23T05:36:00.185Z,4.85
2023-04-23T05:38:29.752Z,4.20
2023-04-23T05:40:56.450Z,5.18
2023-04-23T05:43:23.058Z,10.73
2023-04-23T05:45:49.719Z,9.93
2023-04-23T05:48:16.547Z,5.78
2023-04-23T05:50:43.329Z,7.57
2023-04-23T05:53:09.967Z,4.70
2023-04-23T05:55:36.637Z,12.77
2023-04-23T05:58:03.315Z,7.18
2023-04-23T06:00:30.039Z,10.70
2023-04-23T06:02:56.840Z,14.82
2023-04-23T06:05:23.660Z,8.88
2023-04-23T06:07:50.465Z,8.02
2023-04-23T06:10:17.181Z,3.28
2023-04-23T06:12:43.767Z,8.38
2023-04-23T06:15:11.246Z,14.30
2023-04-23T06:17:38.309Z,9.40
2023-04-23T06:20:05.704Z,9.77
2023-04-23T06:23:09.662Z,3.65
2023-04-23T06:25:36.255Z,6.22
2023-04-23T06:28:02.898Z,5.35
2023-04-23T06:30:34.857Z,7.82
2023-04-23T06:33:02.283Z,5.05
2023-04-23T06:35:30.039Z,12.18
2023-04-23T06:37:56.637Z,4.13
2023-04-23T06:40:23.253Z,13.60
2023-04-23T06:42:49.917Z,5.15
2023-04-23T06:45:18.665Z,9.25
2023-04-23T06:47:45.488Z,12.85
2023-04-23T06:50:12.238Z,10.82
2023-04-23T06:52:39.016Z,8.30
2023-04-23T06:55:06.194Z,4.95
2023-04-23T06:57:33.706Z,3.20
2023-04-23T07:00:00.342Z,7.97
2023-04-23T07:02:32.931Z,5.63
2023-04-23T07:04:59.642Z,6.07
2023-04-23T07:07:26.319Z,4.32
2023-04-23T07:09:52.961Z,11.63
2023-04-23T07:12:19.950Z,14.27
2023-04-23T07:14:46.641Z,3.95
2023-04-23T07:17:13.291Z,3.47
2023-04-23T07:19:40.003Z,4.72
2023-04-23T07:22:06.592Z,3.88
2023-04-23T07:24:33.175Z,2.88
2023-04-23T07:26:59.765Z,6.85
2023-04-23T07:29:26.365Z,7.30
2023-04-23T07:31:53.048Z,6.68
2023-04-23T07:34:19.685Z,2.65
2023-04-23T07:36:46.330Z,22.55
2023-04-23T07:39:13.264Z,3.92
2023-04-23T07:41:40.102Z,3.33
2023-04-23T07:44:06.936Z,2.63
2023-04-23T07:46:33.632Z,5.05
2023-04-23T07:49:00.711Z,7.50
2023-04-23T07:51:27.368Z,3.47
2023-04-23T07:53:54.421Z,2.97
2023-04-23T07:56:22.312Z,4.20
2023-04-23T07:58:48.920Z,5.68
2023-04-23T08:01:15.692Z,4.90
2023-04-23T08:03:42.764Z,6.30
2023-04-23T08:06:12.347Z,8.93
2023-04-23T08:08:39.372Z,2.35
2023-04-23T08:11:07.051Z,2.60
2023-04-23T08:13:33.821Z,4.68
2023-04-23T08:16:00.611Z,3.17
2023-04-23T08:18:27.249Z,1.17
2023-04-23T08:20:55.022Z,2.15
2023-04-23T08:23:21.824Z,3.42
2023-04-23T08:25:48.416Z,5.07
2023-04-23T08:28:15.019Z,13.55
2023-04-23T08:30:41.721Z,2.38
2023-04-23T08:33:08.380Z,4.80
2023-04-23T08:35:35.157Z,4.47
2023-04-23T08:38:01.988Z,2.03
2023-04-23T08:40:31.458Z,5.65
2023-04-23T08:43:02.587Z,4.60
2023-04-23T08:45:30.531Z,13.98
2023-04-23T08:48:02.026Z,2.50
2023-04-23T08:50:30.210Z,0.60
2023-04-23T08:52:57.981Z,2.38
2023-04-23T08:55:25.531Z,1.27
2023-04-23T08:57:52.560Z,2.25
2023-04-23T09:00:21.285Z,5.88
2023-04-23T09:02:49.408Z,2.63
2023-04-23T09:05:16.666Z,0.85
2023-04-23T09:07:43.662Z,7.53
2023-04-23T09:10:12.481Z,1.48
2023-04-23T09:12:41.669Z,0.73
2023-04-23T09:15:12.694Z,2.05
2023-04-23T09:17:44.396Z,1.27
2023-04-23T09:20:12.459Z,1.60
2023-04-23T09:22:45.976Z,1.13
2023-04-23T09:25:16.242Z,2.17
2023-04-23T09:27:42.933Z,1.20
2023-04-23T09:30:11.760Z,2.03
2023-04-23T09:32:43.853Z,5.88
2023-04-23T09:35:13.722Z,4.97
2023-04-23T09:37:48.997Z,0.77
2023-04-23T09:40:17.813Z,2.03
2023-04-23T09:42:55.653Z,2.15
2023-04-23T09:45:22.971Z,0.57
2023-04-23T09:47:57.817Z,2.42
2023-04-23T09:50:40.693Z,3.13
2023-04-23T09:53:08.935Z,2.67
2023-04-23T09:55:39.071Z,1.10
2023-04-23T09:58:11.010Z,0.88
2023-04-23T10:00:38.944Z,1.00
2023-04-23T10:03:07.703Z,1.58
2023-04-23T10:05:56.319Z,0.85
2023-04-23T10:08:27.600Z,1.50
2023-04-23T10:11:05.947Z,1.27
2023-04-23T10:13:41.284Z,0.73
2023-04-23T10:16:21.230Z,3.22
2023-04-23T10:18:51.179Z,1.38
2023-04-23T10:21:19.560Z,0.70
2023-04-23T10:23:47.811Z,1.00
2023-04-23T10:26:16.837Z,3.90
2023-04-23T10:28:48.326Z,1.35
2023-04-23T10:31:16.027Z,0.95
2023-04-23T10:33:56.134Z,0.98
2023-04-23T10:36:27.485Z,1.05
2023-04-23T10:38:59.049Z,0.82
2023-04-23T10:41:35.423Z,3.00
2023-04-23T10:44:03.878Z,1.05
2023-04-23T10:46:36.469Z,0.75
2023-04-23T10:49:16.909Z,1.00
2023-04-23T10:54:20.419Z,0.68
2023-04-23T10:57:02.959Z,1.20
2023-04-23T10:59:31.445Z,0.73
2023-04-23T11:02:01.956Z,0.73
2023-04-23T11:04:29.992Z,0.80
2023-04-23T11:06:59.032Z,1.98
2023-04-23T11:09:41.031Z,0.55
2023-04-23T11:12:11.407Z,0.60
2023-04-23T11:14:49.592Z,1.33
2023-04-23T11:17:18.962Z,3.40
2023-04-23T11:20:04.155Z,0.82
2023-04-23T11:22:43.142Z,0.98
2023-04-23T11:25:12.686Z,0.57
2023-04-23T11:27:44.045Z,0.45
2023-04-23T11:30:20.736Z,0.82
2023-04-23T11:32:52.498Z,0.75
2023-04-23T11:35:28.242Z,1.10
2023-04-23T11:37:55.029Z,0.65
2023-04-23T11:40:21.883Z,0.85
2023-04-23T11:42:55.275Z,0.47
2023-04-23T11:45:25.762Z,1.15
2023-04-23T11:47:57.681Z,1.70
2023-04-23T11:50:32.802Z,0.80
2023-04-23T11:53:10.055Z,0.45
2023-04-23T11:55:38.008Z,0.40
2023-04-23T11:58:04.825Z,1.25
2023-04-23T12:00:31.552Z,1.25
2023-04-23T12:03:03.132Z,0.38
2023-04-23T12:05:36.693Z,0.60
2023-04-23T12:08:16.483Z,0.63
2023-04-23T12:10:52.797Z,0.50
2023-04-23T12:13:21.615Z,0.88
2023-04-23T12:15:56.684Z,0.40
2023-04-23T12:18:37.758Z,0.35
2023-04-23T12:21:10.977Z,0.40
2023-04-23T12:23:39.094Z,0.50
2023-04-23T12:26:15.257Z,0.38
2023-04-23T12:28:51.135Z,0.38
2023-04-23T12:31:28.257Z,0.30
2023-04-23T12:34:08.542Z,0.60
2023-04-23T12:36:40.752Z,1.00
2023-04-23T12:39:31.682Z,0.30
2023-04-23T12:42:06.781Z,0.50
2023-04-23T12:44:42.663Z,0.30
2023-04-23T12:47:15.179Z,0.40
2023-04-23T12:49:43.060Z,0.50
2023-04-23T12:52:11.508Z,0.30
2023-04-23T12:54:40.702Z,0.30
2023-04-23T12:57:11.301Z,3.38
2023-04-23T12:59:38.340Z,0.40
2023-04-23T13:02:06.798Z,0.30
2023-04-23T13:04:35.728Z,0.47
2023-04-23T13:07:02.877Z,0.25
2023-04-23T13:09:30.076Z,0.30
2023-04-23T13:11:57.005Z,11.90
2023-04-23T13:14:23.700Z,0.28
2023-04-23T13:16:50.923Z,0.20
2023-04-23T13:19:17.820Z,0.50
2023-04-23T13:21:45.420Z,0.50
2023-04-23T13:24:12.158Z,0.40
2023-04-23T13:26:38.950Z,0.30
2023-04-23T13:29:05.996Z,0.93
2023-04-23T13:31:32.813Z,0.30
2023-04-23T13:34:01.349Z,0.30
2023-04-23T13:36:29.134Z,0.30
2023-04-23T13:38:55.822Z,0.25
2023-04-23T13:41:22.425Z,0.30
2023-04-23T13:43:49.058Z,0.50
2023-04-23T13:46:16.583Z,0.40
2023-04-23T13:48:43.282Z,0.75
2023-04-23T13:51:25.382Z,0.30
2023-04-23T13:53:56.675Z,0.30
2023-04-23T13:56:23.329Z,0.30
2023-04-23T13:58:52.834Z,0.75
2023-04-23T14:01:22.688Z,0.25
2023-04-23T14:03:49.488Z,0.50
2023-04-23T14:06:16.115Z,0.40
2023-04-23T14:08:42.763Z,0.40
2023-04-23T14:11:09.617Z,0.40
2023-04-23T14:13:37.033Z,1.00
2023-04-23T14:16:03.898Z,0.35
2023-04-23T14:18:30.652Z,0.35
2023-04-23T14:20:57.429Z,1.58
2023-04-23T14:23:24.038Z,0.45
2023-04-23T14:25:58.958Z,0.45
2023-04-23T14:28:34.365Z,0.50
2023-04-23T14:31:02.084Z,0.30
2023-04-23T14:33:28.768Z,0.32
2023-04-23T14:35:55.545Z,0.50
2023-04-23T14:38:22.973Z,0.30
2023-04-23T14:40:49.595Z,0.52
2023-04-23T14:43:16.481Z,0.73
2023-04-23T14:45:43.254Z,0.85
2023-04-23T14:48:09.971Z,0.68
2023-04-23T14:50:36.733Z,0.40
2023-04-23T14:53:06.964Z,0.32
2023-04-23T14:55:34.154Z,0.40
2023-04-23T14:58:01.364Z,0.30
2023-04-23T15:00:28.338Z,0.85
2023-04-23T15:02:55.185Z,1.13
2023-04-23T15:05:21.971Z,0.95
2023-04-23T15:07:48.593Z,0.30
2023-04-23T15:10:15.326Z,0.68
2023-04-23T15:12:48.142Z,0.30
2023-04-23T15:15:36.851Z,0.30
2023-04-23T15:18:07.927Z,0.60
2023-04-23T15:20:34.609Z,0.40
2023-04-23T15:23:01.259Z,0.35
2023-04-23T15:25:29.226Z,0.45
2023-04-23T15:27:57.824Z,0.30
2023-04-23T15:30:26.098Z,1.00
2023-04-23T15:32:55.275Z,0.57
2023-04-23T15:35:23.160Z,3.83
2023-04-23T15:37:50.640Z,0.20
2023-04-23T15:40:17.500Z,1.05
2023-04-23T15:42:44.478Z,0.30
2023-04-23T15:45:11.834Z,0.30
2023-04-23T15:47:38.920Z,0.55
2023-04-23T15:50:06.420Z,0.35
2023-04-23T15:52:33.357Z,0.50
2023-04-23T15:55:00.581Z,0.40
2023-04-23T15:57:27.422Z,0.30
2023-04-23T15:59:55.617Z,0.38
2023-04-23T16:02:22.644Z,0.35
2023-04-23T16:04:51.149Z,1.00
2023-04-23T16:07:17.983Z,0.52
2023-04-23T16:09:44.667Z,0.30
2023-04-23T16:12:12.872Z,0.55
2023-04-23T16:14:40.144Z,0.60
2023-04-23T16:17:06.934Z,0.40
2023-04-23T16:19:33.755Z,0.63
2023-04-23T16:22:00.384Z,0.50
2023-04-23T16:24:27.029Z,0.50
2023-04-23T16:26:53.798Z,0.60
2023-04-23T16:29:22.563Z,1.08
2023-04-23T16:31:49.812Z,0.68
2023-04-23T16:34:16.777Z,0.50
2023-04-23T16:36:43.578Z,0.60
2023-04-23T16:39:11.068Z,0.73
2023-04-23T16:41:37.813Z,0.38
2023-04-23T16:44:04.555Z,0.40
2023-04-23T16:46:31.691Z,0.30
2023-04-23T16:48:58.733Z,0.43
2023-04-23T16:51:26.784Z,0.40
2023-04-23T16:53:53.511Z,1.15
2023-04-23T16:56:21.106Z,0.50
2023-04-23T16:58:47.918Z,0.50
2023-04-23T17:01:15.604Z,0.40
2023-04-23T17:03:42.619Z,0.50
2023-04-23T17:06:32.856Z,0.40
2023-04-23T17:09:01.459Z,1.95
2023-04-23T17:11:29.719Z,0.40
2023-04-23T17:13:57.061Z,0.50
2023-04-23T17:16:27.676Z,0.85
2023-04-23T17:18:55.212Z,0.50
2023-04-23T17:21:22.202Z,0.40
2023-04-23T17:23:48.884Z,0.30
2023-04-23T17:26:15.601Z,0.50
2023-04-23T17:28:42.401Z,0.40
2023-04-23T17:31:09.388Z,0.30
2023-04-23T17:33:36.147Z,0.57
2023-04-23T17:36:03.148Z,0.57
2023-04-23T17:38:29.891Z,0.38
2023-04-23T17:40:56.554Z,0.65
2023-04-23T17:43:23.250Z,0.60
2023-04-23T17:45:49.965Z,0.35
2023-04-23T17:48:16.640Z,0.50
2023-04-23T17:50:43.946Z,1.15
2023-04-23T17:53:10.637Z,0.60
2023-04-23T17:55:37.316Z,0.40
2023-04-23T17:58:07.412Z,0.45
2023-04-23T18:00:39.252Z,0.55
2023-04-23T18:03:07.237Z,1.15
2023-04-23T18:05:34.705Z,0.38
2023-04-23T18:08:02.136Z,0.40
2023-04-23T18:10:28.959Z,1.55
2023-04-23T18:12:56.173Z,0.75
2023-04-23T18:15:22.963Z,0.38
2023-04-23T18:17:50.272Z,0.47
2023-04-23T18:20:16.917Z,0.45
2023-04-23T18:22:44.218Z,0.70
2023-04-23T18:25:11.458Z,0.45
2023-04-23T18:27:38.750Z,0.47
2023-04-23T18:30:06.507Z,0.50
2023-04-23T18:32:41.445Z,0.60
2023-04-23T18:35:09.287Z,0.93
2023-04-23T18:38:06.640Z,0.70
2023-04-23T18:40:34.307Z,0.40
2023-04-23T18:43:01.309Z,0.40
2023-04-23T18:45:28.035Z,0.52
2023-04-23T18:48:02.690Z,0.30
2023-04-23T18:50:43.633Z,0.50
2023-04-23T18:53:10.314Z,3.10
2023-04-23T18:55:36.984Z,1.08
2023-04-23T18:58:04.075Z,1.20
2023-04-23T19:00:30.811Z,0.52
2023-04-23T19:02:58.342Z,1.02
2023-04-23T19:05:25.249Z,1.10
2023-04-23T19:07:51.975Z,1.05
2023-04-23T19:10:18.676Z,0.40
2023-04-23T19:12:45.328Z,0.70
2023-04-23T19:15:14.119Z,0.50
2023-04-23T19:17:41.017Z,0.38
2023-04-23T19:20:11.071Z,1.95
2023-04-23T19:22:41.368Z,0.52
2023-04-23T19:25:09.364Z,0.60
2023-04-23T19:27:36.225Z,0.30
2023-04-23T19:30:05.051Z,0.40
2023-04-23T19:32:35.230Z,0.35
2023-04-23T19:35:02.768Z,0.30
2023-04-23T19:37:30.090Z,0.63
2023-04-23T19:39:56.708Z,0.47
2023-04-23T19:42:23.433Z,5.93
2023-04-23T19:44:50.277Z,0.95
2023-04-23T19:47:17.269Z,0.40
2023-04-23T19:49:44.995Z,0.30
2023-04-23T19:52:17.582Z,0.57
2023-04-23T19:54:48.820Z,0.40
2023-04-23T19:57:19.293Z,0.35
2023-04-23T19:59:46.301Z,0.40
2023-04-23T20:02:13.143Z,4.38
2023-04-23T20:04:39.999Z,0.32
2023-04-23T20:07:07.135Z,0.30
2023-04-23T20:09:34.346Z,0.40
2023-04-23T20:12:01.737Z,0.45
2023-04-23T20:14:28.951Z,6.32
2023-04-23T20:16:56.158Z,0.30
2023-04-23T20:19:25.558Z,0.40
2023-04-23T20:21:53.040Z,0.55
2023-04-23T20:24:22.797Z,0.47
2023-04-23T20:26:49.815Z,1.00
2023-04-23T20:29:16.763Z,0.30
2023-04-23T20:31:43.575Z,0.45
2023-04-23T20:34:10.967Z,2.67
2023-04-23T20:36:38.834Z,0.50
2023-04-23T20:39:05.563Z,0.28
2023-04-23T20:41:36.598Z,0.95
2023-04-23T20:44:05.012Z,0.30
2023-04-23T20:46:32.493Z,0.73
2023-04-23T20:49:00.836Z,0.40
2023-04-23T20:51:28.657Z,0.30
2023-04-23T20:53:57.465Z,0.60
2023-04-23T20:56:24.138Z,0.40
2023-04-23T20:58:50.806Z,0.45
2023-04-23T21:01:17.554Z,0.30
2023-04-23T21:03:44.298Z,0.40
2023-04-23T21:06:11.129Z,0.40
2023-04-23T21:08:41.162Z,0.70
2023-04-23T21:11:11.181Z,0.30
2023-04-23T21:13:38.214Z,0.50
2023-04-23T21:16:05.198Z,0.77
2023-04-23T21:18:32.008Z,0.77
2023-04-23T21:20:58.712Z,0.40
2023-04-23T21:23:25.649Z,0.40
2023-04-23T21:25:52.330Z,0.38
2023-04-23T21:28:19.171Z,0.73
2023-04-23T21:30:56.114Z,0.40
2023-04-23T21:33:24.759Z,0.55
2023-04-23T21:35:53.162Z,0.50
2023-04-23T21:38:20.385Z,1.10
2023-04-23T21:40:47.135Z,0.63
2023-04-23T21:43:14.530Z,0.88
2023-04-23T21:45:41.303Z,0.60
2023-04-23T21:48:08.061Z,1.33
2023-04-23T21:50:34.899Z,0.55
2023-04-23T21:53:03.868Z,0.40
2023-04-23T21:55:31.623Z,0.50
2023-04-23T21:58:09.842Z,0.40
2023-04-23T22:00:44.293Z,0.40
2023-04-23T22:03:38.755Z,0.73
2023-04-23T22:06:06.547Z,1.17
2023-04-23T22:08:33.183Z,0.40
2023-04-23T22:10:59.878Z,0.30
2023-04-23T22:13:26.663Z,0.40
2023-04-23T22:15:53.293Z,0.30
2023-04-23T22:18:19.902Z,0.50
2023-04-23T22:20:49.450Z,0.32
2023-04-23T22:23:16.286Z,0.40
2023-04-23T22:25:43.020Z,0.30
2023-04-23T22:28:09.621Z,0.30
2023-04-23T22:30:36.372Z,0.45
2023-04-23T22:33:03.528Z,0.40
2023-04-23T22:35:30.295Z,0.50
2023-04-23T22:37:57.278Z,0.60
2023-04-23T22:40:24.390Z,0.65
2023-04-23T22:42:51.090Z,0.50
2023-04-23T22:45:17.807Z,0.40
2023-04-23T22:47:44.432Z,0.60
2023-04-23T22:50:11.701Z,0.40
2023-04-23T22:52:38.388Z,0.40
2023-04-23T22:55:05.381Z,0.40
2023-04-23T22:57:32.111Z,0.82
2023-04-23T22:59:58.784Z,0.68
2023-04-23T23:02:26.624Z,0.30
2023-04-23T23:04:53.432Z,0.40
2023-04-23T23:07:20.911Z,0.30
2023-04-23T23:09:47.649Z,0.40
2023-04-23T23:12:14.335Z,0.40
2023-04-23T23:14:41.121Z,0.40
2023-04-23T23:17:07.711Z,0.45
2023-04-23T23:19:34.362Z,0.60
2023-04-23T23:22:00.972Z,0.40
2023-04-23T23:24:27.675Z,0.47
2023-04-23T23:26:54.391Z,0.80
2023-04-23T23:29:21.131Z,0.40
2023-04-23T23:31:47.794Z,0.35
2023-04-23T23:34:14.415Z,0.40
2023-04-23T23:36:41.212Z,0.50
2023-04-23T23:39:07.917Z,0.50
2023-04-23T23:41:34.500Z,0.68
2023-04-23T23:44:01.097Z,0.40
2023-04-23T23:46:27.946Z,0.65
2023-04-23T23:48:54.809Z,0.30
2023-04-23T23:51:21.533Z,0.50
2023-04-23T23:53:48.123Z,0.35
2023-04-23T23:56:14.892Z,0.50
2023-04-23T23:58:50.655Z,0.40
